createdAt,value
2018-07-20T00:01:26.290Z,4.60
2018-07-20T00:03:55.730Z,5.40
2018-07-20T00:06:24.906Z,5.70
2018-07-20T00:08:53.405Z,6.90
2018-07-20T00:11:22.247Z,5.93
2018-07-20T00:13:51.119Z,4.50
2018-07-20T00:16:19.670Z,6.30
2018-07-20T00:18:48.244Z,6.40
2018-07-20T00:21:17.309Z,6.47
2018-07-20T00:23:45.805Z,5.47
2018-07-20T00:26:14.423Z,6.60
2018-07-20T00:28:43.042Z,6.60
2018-07-20T00:31:11.634Z,6.97
2018-07-20T00:33:40.233Z,5.80
2018-07-20T00:36:08.802Z,7.00
2018-07-20T00:38:37.566Z,6.70
2018-07-20T00:41:06.273Z,6.23
2018-07-20T00:43:34.793Z,6.10
2018-07-20T00:46:03.708Z,6.67
2018-07-20T00:48:32.239Z,6.90
2018-07-20T00:51:00.727Z,5.93
2018-07-20T00:53:29.320Z,7.50
2018-07-20T00:55:57.835Z,6.90
2018-07-20T00:58:26.411Z,7.27
2018-07-20T01:00:54.990Z,6.93
2018-07-20T01:03:23.489Z,7.10
2018-07-20T01:05:51.983Z,7.10
2018-07-20T01:08:20.467Z,6.73
2018-07-20T01:10:48.949Z,7.33
2018-07-20T01:13:17.491Z,7.43
2018-07-20T01:15:46.113Z,7.57
2018-07-20T01:18:15.386Z,8.40
2018-07-20T01:20:44.256Z,8.43
2018-07-20T01:23:12.786Z,8.50
2018-07-20T01:25:41.342Z,7.30
2018-07-20T01:28:09.873Z,8.80
2018-07-20T01:30:39.013Z,7.93
2018-07-20T01:33:07.862Z,7.53
2018-07-20T01:35:36.417Z,8.80
2018-07-20T01:38:04.971Z,8.07
2018-07-20T01:40:33.482Z,8.80
2018-07-20T01:43:02.118Z,8.13
2018-07-20T01:45:30.583Z,8.77
2018-07-20T01:47:59.123Z,8.47
2018-07-20T01:50:28.395Z,7.73
2018-07-20T01:52:56.866Z,8.40
2018-07-20T01:55:25.390Z,8.07
2018-07-20T01:57:53.950Z,8.80
2018-07-20T02:00:22.523Z,7.87
2018-07-20T02:02:51.062Z,8.20
2018-07-20T02:05:19.615Z,8.20
2018-07-20T02:07:48.089Z,8.13
2018-07-20T02:10:16.661Z,7.47
2018-07-20T02:12:45.158Z,6.73
2018-07-20T02:15:13.693Z,8.10
2018-07-20T02:17:42.389Z,8.30
2018-07-20T02:20:10.934Z,8.70
2018-07-20T02:22:39.441Z,7.33
2018-07-20T02:25:07.998Z,7.83
2018-07-20T02:27:36.601Z,7.43
2018-07-20T02:30:05.975Z,7.60
2018-07-20T02:32:34.556Z,7.43
2018-07-20T02:35:03.109Z,8.50
2018-07-20T02:37:31.792Z,7.43
2018-07-20T02:40:00.317Z,6.67
2018-07-20T02:42:28.851Z,7.17
2018-07-20T02:44:57.389Z,8.30
2018-07-20T02:47:25.899Z,8.00
2018-07-20T02:49:54.373Z,7.63
2018-07-20T02:52:22.898Z,7.40
2018-07-20T02:54:51.414Z,7.57
2018-07-20T02:57:19.970Z,7.57
2018-07-20T02:59:48.450Z,7.10
2018-07-20T03:02:16.935Z,7.07
2018-07-20T03:04:45.406Z,7.10
2018-07-20T03:07:13.897Z,6.90
2018-07-20T03:09:42.429Z,6.30
2018-07-20T03:12:10.948Z,7.20
2018-07-20T03:14:39.522Z,5.30
2018-07-20T03:17:08.073Z,6.90
2018-07-20T03:19:36.586Z,7.13
2018-07-20T03:22:05.298Z,7.33
2018-07-20T03:24:34.250Z,7.43
2018-07-20T03:27:02.792Z,7.03
2018-07-20T03:29:31.289Z,6.47
2018-07-20T03:32:00.449Z,6.80
2018-07-20T03:34:29.036Z,6.83
2018-07-20T03:36:57.569Z,6.70
2018-07-20T03:39:26.098Z,6.87
2018-07-20T03:41:54.669Z,5.53
2018-07-20T03:44:23.441Z,7.43
2018-07-20T03:46:51.969Z,6.07
2018-07-20T03:49:20.574Z,7.03
2018-07-20T03:51:49.090Z,7.50
2018-07-20T03:54:17.583Z,7.60
2018-07-20T03:56:46.134Z,6.47
2018-07-20T03:59:14.707Z,7.40
2018-07-20T04:01:43.223Z,6.70
2018-07-20T04:04:12.207Z,6.33
2018-07-20T04:06:40.750Z,6.50
2018-07-20T04:09:10.485Z,6.37
2018-07-20T04:11:39.525Z,6.07
2018-07-20T04:14:08.391Z,6.37
2018-07-20T04:16:37.917Z,6.57
2018-07-20T04:19:07.251Z,6.40
2018-07-20T04:21:36.042Z,7.60
2018-07-20T04:24:04.632Z,6.43
2018-07-20T04:26:33.179Z,6.43
2018-07-20T04:29:01.828Z,6.13
2018-07-20T04:31:30.370Z,7.77
2018-07-20T04:33:58.850Z,6.70
2018-07-20T04:36:27.555Z,6.80
2018-07-20T04:38:56.061Z,6.50
2018-07-20T04:41:24.825Z,7.43
2018-07-20T04:43:53.402Z,6.20
2018-07-20T04:46:21.868Z,6.23
2018-07-20T04:48:50.333Z,7.10
2018-07-20T04:51:19.155Z,6.23
2018-07-20T04:53:47.624Z,5.90
2018-07-20T04:56:16.129Z,6.20
2018-07-20T04:58:45.598Z,6.30
2018-07-20T05:01:14.206Z,5.60
2018-07-20T05:03:42.728Z,6.63
2018-07-20T05:06:11.263Z,6.47
2018-07-20T05:08:39.777Z,7.00
2018-07-20T05:11:08.551Z,6.43
2018-07-20T05:13:37.157Z,5.93
2018-07-20T05:16:05.727Z,4.87
2018-07-20T05:18:34.403Z,5.80
2018-07-20T05:21:02.904Z,5.80
2018-07-20T05:23:31.426Z,5.33
2018-07-20T05:25:59.998Z,5.50
2018-07-20T05:28:28.558Z,5.60
2018-07-20T05:30:57.331Z,5.43
2018-07-20T05:33:25.853Z,5.33
2018-07-20T05:35:56.016Z,5.70
2018-07-20T05:38:24.491Z,5.33
2018-07-20T05:40:53.008Z,5.73
2018-07-20T05:43:21.563Z,4.93
2018-07-20T05:45:50.055Z,5.00
2018-07-20T05:48:18.558Z,4.83
2018-07-20T05:50:47.042Z,5.70
2018-07-20T05:53:15.607Z,5.50
2018-07-20T05:55:44.160Z,5.20
2018-07-20T05:58:12.722Z,4.83
2018-07-20T06:00:41.262Z,4.77
2018-07-20T06:03:09.766Z,5.37
2018-07-20T06:05:38.343Z,5.00
2018-07-20T06:08:06.976Z,5.20
2018-07-20T06:10:35.592Z,5.83
2018-07-20T06:13:04.131Z,5.70
2018-07-20T06:15:32.613Z,5.60
2018-07-20T06:18:01.153Z,4.30
2018-07-20T06:20:29.674Z,5.67
2018-07-20T06:22:58.234Z,5.43
2018-07-20T06:25:26.726Z,5.40
2018-07-20T06:27:55.255Z,5.17
2018-07-20T06:30:23.850Z,5.87
2018-07-20T06:32:52.386Z,5.40
2018-07-20T06:35:20.897Z,5.00
2018-07-20T06:37:49.873Z,5.50
2018-07-20T06:40:18.458Z,5.80
2018-07-20T06:42:47.198Z,6.60
2018-07-20T06:45:15.718Z,5.43
2018-07-20T06:47:44.323Z,5.70
2018-07-20T06:50:15.901Z,6.20
2018-07-20T06:52:45.661Z,5.30
2018-07-20T06:55:14.395Z,5.87
2018-07-20T06:57:43.001Z,5.20
2018-07-20T07:00:11.717Z,5.90
2018-07-20T07:02:40.262Z,5.33
2018-07-20T07:05:10.182Z,5.93
2018-07-20T07:07:38.704Z,6.77
2018-07-20T07:10:07.917Z,6.47
2018-07-20T07:12:36.745Z,6.10
2018-07-20T07:15:05.674Z,6.00
2018-07-20T07:17:34.146Z,6.57
2018-07-20T07:20:02.713Z,6.83
2018-07-20T07:22:31.211Z,6.63
2018-07-20T07:24:59.760Z,7.00
2018-07-20T07:27:28.276Z,7.53
2018-07-20T07:29:56.895Z,8.20
2018-07-20T07:32:25.419Z,7.73
2018-07-20T07:34:53.899Z,7.93
2018-07-20T07:37:22.414Z,7.40
2018-07-20T07:39:50.971Z,6.50
2018-07-20T07:42:19.501Z,7.60
2018-07-20T07:44:48.054Z,8.07
2018-07-20T07:47:16.939Z,7.37
2018-07-20T07:49:45.432Z,6.83
2018-07-20T07:52:13.942Z,7.77
2018-07-20T07:54:42.451Z,7.43
2018-07-20T07:57:11.012Z,8.60
2018-07-20T07:59:39.559Z,7.17
2018-07-20T08:02:08.521Z,8.00
2018-07-20T08:04:37.007Z,8.07
2018-07-20T08:07:05.510Z,7.73
2018-07-20T08:09:34.082Z,7.87
2018-07-20T08:12:02.705Z,8.70
2018-07-20T08:14:31.332Z,8.50
2018-07-20T08:16:59.834Z,7.87
2018-07-20T08:19:28.410Z,7.70
2018-07-20T08:21:57.007Z,8.10
2018-07-20T08:24:25.510Z,8.00
2018-07-20T08:26:54.396Z,8.03
2018-07-20T08:29:23.172Z,7.23
2018-07-20T08:31:51.773Z,8.67
2018-07-20T08:34:20.441Z,8.10
2018-07-20T08:36:48.949Z,8.70
2018-07-20T08:39:17.508Z,9.30
2018-07-20T08:41:46.049Z,8.77
2018-07-20T08:44:14.653Z,7.70
2018-07-20T08:46:43.347Z,9.30
2018-07-20T08:49:11.965Z,8.20
2018-07-20T08:51:40.541Z,8.03
2018-07-20T08:54:09.043Z,8.80
2018-07-20T08:56:37.529Z,9.30
2018-07-20T08:59:06.444Z,9.40
2018-07-20T09:01:34.994Z,11.10
2018-07-20T09:04:03.598Z,9.57
2018-07-20T09:06:32.107Z,9.43
2018-07-20T09:09:00.693Z,9.53
2018-07-20T09:11:29.206Z,8.20
2018-07-20T09:13:57.859Z,8.37
2018-07-20T09:16:26.302Z,7.87
2018-07-20T09:18:54.820Z,8.13
2018-07-20T09:21:23.387Z,9.30
2018-07-20T09:23:52.045Z,8.07
2018-07-20T09:26:20.642Z,9.77
2018-07-20T09:28:49.163Z,9.20
2018-07-20T09:31:17.693Z,10.27
2018-07-20T09:33:46.474Z,9.47
2018-07-20T09:36:15.171Z,8.60
2018-07-20T09:38:43.730Z,8.23
2018-07-20T09:41:12.313Z,9.90
2018-07-20T09:43:40.853Z,9.73
2018-07-20T09:46:09.370Z,7.93
2018-07-20T09:48:37.950Z,8.80
2018-07-20T09:51:06.757Z,8.30
2018-07-20T09:53:35.265Z,8.60
2018-07-20T09:56:04.308Z,10.07
2018-07-20T09:58:32.887Z,10.37
2018-07-20T10:01:01.460Z,9.40
2018-07-20T10:03:30.024Z,9.67
2018-07-20T10:05:58.569Z,8.87
2018-07-20T10:08:27.621Z,9.30
2018-07-20T10:10:56.173Z,7.90
2018-07-20T10:13:24.670Z,9.30
2018-07-20T10:15:53.223Z,9.30
2018-07-20T10:18:21.726Z,9.20
2018-07-20T10:20:50.369Z,9.20
2018-07-20T10:23:18.856Z,9.10
2018-07-20T10:25:47.515Z,8.60
2018-07-20T10:28:16.090Z,8.00
2018-07-20T10:30:44.612Z,9.60
2018-07-20T10:33:13.489Z,10.30
2018-07-20T10:35:42.018Z,9.50
2018-07-20T10:38:10.564Z,10.50
2018-07-20T10:40:39.138Z,8.20
2018-07-20T10:43:17.655Z,10.10
2018-07-20T10:45:49.732Z,9.30
2018-07-20T10:48:18.290Z,10.00
2018-07-20T10:50:46.867Z,10.20
2018-07-20T10:53:15.475Z,8.80
2018-07-20T10:55:44.020Z,8.67
2018-07-20T10:58:12.574Z,8.10
2018-07-20T11:00:41.232Z,10.20
2018-07-20T11:03:09.878Z,8.37
2018-07-20T11:05:38.421Z,9.00
2018-07-20T11:08:06.987Z,9.47
2018-07-20T11:10:35.653Z,9.00
2018-07-20T11:13:04.654Z,9.23
2018-07-20T11:15:33.154Z,11.23
2018-07-20T11:18:01.685Z,10.40
2018-07-20T11:20:30.277Z,9.70
2018-07-20T11:22:58.797Z,8.77
2018-07-20T11:25:27.458Z,9.47
2018-07-20T11:27:56.030Z,10.37
2018-07-20T11:30:24.509Z,9.93
2018-07-20T11:32:53.061Z,11.50
2018-07-20T11:35:21.614Z,9.50
2018-07-20T11:37:50.211Z,11.03
2018-07-20T11:40:18.751Z,9.77
2018-07-20T11:42:47.313Z,9.10
2018-07-20T11:45:15.900Z,10.03
2018-07-20T11:47:44.404Z,8.80
2018-07-20T11:50:12.932Z,10.40
2018-07-20T11:52:41.412Z,10.80
2018-07-20T11:55:10.140Z,8.30
2018-07-20T11:57:38.739Z,9.90
2018-07-20T12:00:07.253Z,9.80
2018-07-20T12:02:35.738Z,8.77
2018-07-20T12:05:04.343Z,10.13
2018-07-20T12:07:32.925Z,10.63
2018-07-20T12:10:01.505Z,11.00
2018-07-20T12:12:30.026Z,8.90
2018-07-20T12:14:58.512Z,9.33
2018-07-20T12:17:27.012Z,9.03
2018-07-20T12:19:55.512Z,10.33
2018-07-20T12:22:24.078Z,10.50
2018-07-20T12:24:52.558Z,10.03
2018-07-20T12:27:21.258Z,9.93
2018-07-20T12:29:49.963Z,10.10
2018-07-20T12:32:18.480Z,10.77
2018-07-20T12:34:47.324Z,10.23
2018-07-20T12:37:15.929Z,8.77
2018-07-20T12:39:45.436Z,8.53
2018-07-20T12:42:13.921Z,9.23
2018-07-20T12:44:42.385Z,9.40
2018-07-20T12:47:10.955Z,8.80
2018-07-20T12:49:40.036Z,9.57
2018-07-20T12:52:08.574Z,10.38
2018-07-20T12:54:37.110Z,9.80
2018-07-20T12:57:05.678Z,11.63
2018-07-20T12:59:34.204Z,9.63
2018-07-20T13:02:02.719Z,8.20
2018-07-20T13:04:31.232Z,8.77
2018-07-20T13:06:59.896Z,9.30
2018-07-20T13:09:28.365Z,10.50
2018-07-20T13:11:57.431Z,10.77
2018-07-20T13:14:26.057Z,10.73
2018-07-20T13:16:54.572Z,9.70
2018-07-20T13:19:23.105Z,8.20
2018-07-20T13:21:51.736Z,9.17
2018-07-20T13:24:20.453Z,9.40
2018-07-20T13:26:49.309Z,10.03
2018-07-20T13:29:17.858Z,10.47
2018-07-20T13:31:46.404Z,8.97
2018-07-20T13:34:14.975Z,10.90
2018-07-20T13:36:43.472Z,11.00
2018-07-20T13:39:12.816Z,9.93
2018-07-20T13:41:41.925Z,9.47
2018-07-20T13:44:11.437Z,9.60
2018-07-20T13:46:40.006Z,9.40
2018-07-20T13:49:08.498Z,8.10
2018-07-20T13:51:36.957Z,7.60
2018-07-20T13:54:05.680Z,9.15
2018-07-20T13:56:34.165Z,9.20
2018-07-20T13:59:02.702Z,9.67
2018-07-20T14:01:31.198Z,8.33
2018-07-20T14:03:59.977Z,8.50
2018-07-20T14:06:28.473Z,8.28
2018-07-20T14:08:57.096Z,9.10
2018-07-20T14:11:25.640Z,9.37
2018-07-20T14:13:54.196Z,8.83
2018-07-20T14:16:23.077Z,8.95
2018-07-20T14:18:51.559Z,9.15
2018-07-20T14:21:20.022Z,9.33
2018-07-20T14:23:48.561Z,7.65
2018-07-20T14:26:17.145Z,9.13
2018-07-20T14:28:45.648Z,8.38
2018-07-20T14:31:14.290Z,9.10
2018-07-20T14:33:42.793Z,8.13
2018-07-20T14:36:11.304Z,8.23
2018-07-20T14:38:39.763Z,8.35
2018-07-20T14:41:08.278Z,9.05
2018-07-20T14:43:36.809Z,9.70
2018-07-20T14:46:05.589Z,9.05
2018-07-20T14:48:34.113Z,7.92
2018-07-20T14:51:02.749Z,7.60
2018-07-20T14:53:31.223Z,7.45
2018-07-20T14:55:59.730Z,6.65
2018-07-20T14:58:28.417Z,6.97
2018-07-20T15:00:56.918Z,6.67
2018-07-20T15:03:25.757Z,7.00
2018-07-20T15:05:54.249Z,7.28
2018-07-20T15:08:22.693Z,6.45
2018-07-20T15:10:51.304Z,7.50
2018-07-20T15:13:19.769Z,6.50
2018-07-20T15:15:48.281Z,7.22
2018-07-20T15:18:16.769Z,5.67
2018-07-20T15:20:45.245Z,6.10
2018-07-20T15:23:13.711Z,6.30
2018-07-20T15:25:42.632Z,6.35
2018-07-20T15:28:11.152Z,6.17
2018-07-20T15:30:39.634Z,6.97
2018-07-20T15:33:08.157Z,5.95
2018-07-20T15:35:36.658Z,6.15
2018-07-20T15:38:05.258Z,5.90
2018-07-20T15:40:33.757Z,6.50
2018-07-20T15:43:02.293Z,6.58
2018-07-20T15:45:30.794Z,5.75
2018-07-20T15:47:59.257Z,6.05
2018-07-20T15:50:27.824Z,6.67
2018-07-20T15:53:35.723Z,6.35
2018-07-20T15:55:24.866Z,6.10
2018-07-20T15:57:53.454Z,5.78
2018-07-20T16:00:21.961Z,5.67
2018-07-20T16:02:50.507Z,6.77
2018-07-20T16:05:19.005Z,5.47
2018-07-20T16:07:47.498Z,5.00
2018-07-20T16:10:16.233Z,5.62
2018-07-20T16:12:44.733Z,5.30
2018-07-20T16:15:13.240Z,5.75
2018-07-20T16:17:41.738Z,5.37
2018-07-20T16:20:11.044Z,6.60
2018-07-20T16:22:39.529Z,5.70
2018-07-20T16:25:08.128Z,5.37
2018-07-20T16:27:36.681Z,5.85
2018-07-20T16:30:05.602Z,5.83
2018-07-20T16:32:34.245Z,5.97
2018-07-20T16:35:02.778Z,5.37
2018-07-20T16:37:31.361Z,5.75
2018-07-20T16:39:59.891Z,6.37
2018-07-20T16:42:28.353Z,5.80
2018-07-20T16:44:56.869Z,6.12
2018-07-20T16:47:29.421Z,6.75
2018-07-20T16:49:59.158Z,6.17
2018-07-20T16:52:28.823Z,6.50
2018-07-20T16:54:57.312Z,6.00
2018-07-20T16:57:25.847Z,5.67
2018-07-20T16:59:54.319Z,5.62
2018-07-20T17:02:22.785Z,5.50
2018-07-20T17:04:51.338Z,6.00
2018-07-20T17:07:20.105Z,5.87
2018-07-20T17:09:48.599Z,5.90
2018-07-20T17:12:17.208Z,5.73
2018-07-20T17:14:45.685Z,6.10
2018-07-20T17:17:14.222Z,6.62
2018-07-20T17:19:42.961Z,5.93
2018-07-20T17:22:11.563Z,5.12
2018-07-20T17:24:40.563Z,6.07
2018-07-20T17:27:09.261Z,6.00
2018-07-20T17:29:37.765Z,5.85
2018-07-20T17:32:06.473Z,5.92
2018-07-20T17:34:35.123Z,6.30
2018-07-20T17:37:03.646Z,6.27
2018-07-20T17:39:32.178Z,6.97
2018-07-20T17:42:00.644Z,5.72
2018-07-20T17:44:29.128Z,6.07
2018-07-20T17:46:57.802Z,6.07
2018-07-20T17:49:26.656Z,5.40
2018-07-20T17:51:55.250Z,6.60
2018-07-20T17:54:23.819Z,6.30
2018-07-20T17:56:52.320Z,5.50
2018-07-20T17:59:20.790Z,5.70
2018-07-20T18:01:49.334Z,6.13
2018-07-20T18:04:17.824Z,5.70
2018-07-20T18:06:46.354Z,6.07
2018-07-20T18:09:14.945Z,6.33
2018-07-20T18:11:43.441Z,5.50
2018-07-20T18:14:11.933Z,6.43
2018-07-20T18:16:40.506Z,5.80
2018-07-20T18:19:08.972Z,5.67
2018-07-20T18:21:44.053Z,6.30
2018-07-20T18:24:12.565Z,5.87
2018-07-20T18:26:41.102Z,6.30
2018-07-20T18:29:09.626Z,5.77
2018-07-20T18:31:38.227Z,6.80
2018-07-20T18:34:06.950Z,6.87
2018-07-20T18:36:35.472Z,6.17
2018-07-20T18:39:05.004Z,6.30
2018-07-20T18:41:33.544Z,6.87
2018-07-20T18:44:02.093Z,6.90
2018-07-20T18:46:30.611Z,6.47
2018-07-20T18:48:59.129Z,6.23
2018-07-20T18:51:27.671Z,6.33
2018-07-20T18:53:56.165Z,6.57
2018-07-20T18:56:24.622Z,7.33
2018-07-20T18:58:53.183Z,6.40
2018-07-20T19:01:21.755Z,7.20
2018-07-20T19:03:50.320Z,6.90
2018-07-20T19:06:18.932Z,6.63
2018-07-20T19:08:47.521Z,7.20
2018-07-20T19:11:16.051Z,7.30
2018-07-20T19:13:44.961Z,6.90
2018-07-20T19:16:13.437Z,7.10
2018-07-20T19:18:41.931Z,7.20
2018-07-20T19:21:10.513Z,6.70
2018-07-20T19:23:39.222Z,7.37
2018-07-20T19:26:07.749Z,7.00
2018-07-20T19:28:36.637Z,7.67
2018-07-20T19:31:05.157Z,7.20
2018-07-20T19:33:33.681Z,6.70
2018-07-20T19:36:02.222Z,8.17
2018-07-20T19:38:30.817Z,7.47
2018-07-20T19:40:59.602Z,6.90
2018-07-20T19:43:28.079Z,8.60
2018-07-20T19:45:56.804Z,8.07
2018-07-20T19:48:25.323Z,6.77
2018-07-20T19:50:53.817Z,8.40
2018-07-20T19:53:22.345Z,7.00
2018-07-20T19:55:51.224Z,7.73
2018-07-20T19:58:19.729Z,7.60
2018-07-20T20:00:48.192Z,6.80
2018-07-20T20:03:16.751Z,7.10
2018-07-20T20:05:45.323Z,7.20
2018-07-20T20:08:13.904Z,5.97
2018-07-20T20:10:42.388Z,6.43
2018-07-20T20:13:10.896Z,5.37
2018-07-20T20:15:39.946Z,3.23
2018-07-20T20:18:08.593Z,3.83
2018-07-20T20:20:37.072Z,3.53
2018-07-20T20:23:05.710Z,3.83
2018-07-20T20:25:34.266Z,3.60
2018-07-20T20:28:02.866Z,3.37
2018-07-20T20:30:31.391Z,3.07
2018-07-20T20:32:59.868Z,3.43
2018-07-20T20:35:28.382Z,2.70
2018-07-20T20:37:56.879Z,3.47
2018-07-20T20:40:25.400Z,3.13
2018-07-20T20:42:54.025Z,3.17
2018-07-20T20:45:22.649Z,3.83
2018-07-20T20:47:51.157Z,3.30
2018-07-20T20:50:19.757Z,3.10
2018-07-20T20:52:48.348Z,3.37
2018-07-20T20:55:16.862Z,2.10
2018-07-20T20:57:45.338Z,3.23
2018-07-20T21:00:13.913Z,2.77
2018-07-20T21:02:42.408Z,2.73
2018-07-20T21:05:10.900Z,2.67
2018-07-20T21:07:39.389Z,3.80
2018-07-20T21:10:08.321Z,3.07
2018-07-20T21:12:36.884Z,2.40
2018-07-20T21:15:05.936Z,2.57
2018-07-20T21:17:34.448Z,2.97
2018-07-20T21:20:02.943Z,2.93
2018-07-20T21:22:31.498Z,2.87
2018-07-20T21:25:00.074Z,2.20
2018-07-20T21:27:28.621Z,3.20
2018-07-20T21:29:57.196Z,2.47
2018-07-20T21:32:25.851Z,3.00
2018-07-20T21:34:54.386Z,2.83
2018-07-20T21:37:22.870Z,2.47
2018-07-20T21:39:51.399Z,3.37
2018-07-20T21:42:19.997Z,2.90
2018-07-20T21:44:49.396Z,2.47
2018-07-20T21:47:17.968Z,3.00
2018-07-20T21:49:46.467Z,2.40
2018-07-20T21:52:15.036Z,3.00
2018-07-20T21:54:43.533Z,2.80
2018-07-20T21:57:12.020Z,2.90
2018-07-20T21:59:40.628Z,3.23
2018-07-20T22:02:09.149Z,2.40
2018-07-20T22:04:37.753Z,2.80
2018-07-20T22:07:06.680Z,3.27
2018-07-20T22:09:35.178Z,2.70
2018-07-20T22:12:03.683Z,2.90
2018-07-20T22:14:32.570Z,2.53
2018-07-20T22:17:01.040Z,2.70
2018-07-20T22:19:29.687Z,2.87
2018-07-20T22:21:58.181Z,2.83
2018-07-20T22:24:26.640Z,2.97
2018-07-20T22:26:55.152Z,2.60
2018-07-20T22:29:23.624Z,2.93
2018-07-20T22:31:52.121Z,2.90
2018-07-20T22:34:20.590Z,2.80
2018-07-20T22:36:49.064Z,3.10
2018-07-20T22:39:17.556Z,2.93
2018-07-20T22:41:46.128Z,3.20
2018-07-20T22:44:15.129Z,3.23
2018-07-20T22:46:43.608Z,2.30
2018-07-20T22:49:12.107Z,2.93
2018-07-20T22:51:42.101Z,3.17
2018-07-20T22:54:10.697Z,3.07
2018-07-20T22:56:39.244Z,3.27
2018-07-20T22:59:07.730Z,2.90
2018-07-20T23:01:36.288Z,3.10
2018-07-20T23:04:04.841Z,3.87
2018-07-20T23:06:33.357Z,3.07
2018-07-20T23:09:01.844Z,3.50
2018-07-20T23:11:30.344Z,3.20
2018-07-20T23:13:58.890Z,3.57
2018-07-20T23:16:27.356Z,3.30
2018-07-20T23:18:55.852Z,3.33
2018-07-20T23:21:24.378Z,3.83
2018-07-20T23:23:52.844Z,3.70
2018-07-20T23:26:21.361Z,3.63
2018-07-20T23:28:49.841Z,3.30
2018-07-20T23:31:18.877Z,3.70
2018-07-20T23:33:47.340Z,3.57
2018-07-20T23:36:15.824Z,4.00
2018-07-20T23:38:44.426Z,3.90
2018-07-20T23:41:12.940Z,3.80
2018-07-20T23:43:41.482Z,3.90
2018-07-20T23:46:10.000Z,4.20
2018-07-20T23:48:38.651Z,3.93
2018-07-20T23:51:07.758Z,4.27
2018-07-20T23:53:36.280Z,4.10
2018-07-20T23:56:05.005Z,4.60
2018-07-20T23:58:33.546Z,3.60
